createdAt,value
2023-03-28T00:00:45.901Z,98370.22
2023-03-28T00:03:14.626Z,98370.34
2023-03-28T00:05:42.753Z,98374.97
2023-03-28T00:08:11.916Z,98368.16
2023-03-28T00:10:39.800Z,98375.78
2023-03-28T00:13:07.984Z,98376.53
2023-03-28T00:15:37.808Z,98368.63
2023-03-28T00:18:08.305Z,98372.56
2023-03-28T00:20:39.141Z,98373.63
2023-03-28T00:23:08.211Z,98371.84
2023-03-28T00:25:36.505Z,98373.63
2023-03-28T00:28:04.831Z,98374.88
2023-03-28T00:30:32.768Z,98377.41
2023-03-28T00:33:00.875Z,98384.66
2023-03-28T00:35:30.290Z,98375.97
2023-03-28T00:37:58.812Z,98382.69
2023-03-28T00:40:26.949Z,98383.16
2023-03-28T00:42:54.921Z,98393.63
2023-03-28T00:45:23.680Z,98391.91
2023-03-28T00:47:52.694Z,98384.94
2023-03-28T00:50:23.600Z,98382.16
2023-03-28T00:52:54.770Z,98389.72
2023-03-28T00:55:24.930Z,98387.22
2023-03-28T00:57:53.152Z,98382.00
2023-03-28T01:00:21.337Z,98389.63
2023-03-28T01:02:51.370Z,98392.13
2023-03-28T01:05:20.164Z,98394.03
2023-03-28T01:07:49.627Z,98387.09
2023-03-28T01:10:19.633Z,98386.25
2023-03-28T01:12:47.617Z,98385.22
2023-03-28T01:15:15.759Z,98384.13
2023-03-28T01:17:46.359Z,98385.63
2023-03-28T01:20:26.717Z,98385.50
2023-03-28T01:23:38.796Z,98387.09
2023-03-28T01:26:45.151Z,98382.84
2023-03-28T01:29:40.385Z,98396.03
2023-03-28T01:32:46.374Z,98403.97
2023-03-28T01:35:33.105Z,98394.31
2023-03-28T01:38:03.549Z,98397.88
2023-03-28T01:40:36.871Z,98401.53
2023-03-28T01:43:11.084Z,98391.69
2023-03-28T01:45:43.082Z,98400.59
2023-03-28T01:48:16.015Z,98397.03
2023-03-28T01:50:45.698Z,98399.09
2023-03-28T01:53:18.093Z,98396.50
2023-03-28T01:55:49.453Z,98395.31
2023-03-28T01:58:19.308Z,98394.84
2023-03-28T02:00:48.774Z,98393.72
2023-03-28T02:03:18.909Z,98391.78
2023-03-28T02:05:47.069Z,98393.16
2023-03-28T02:08:17.467Z,98390.69
2023-03-28T02:10:45.602Z,98385.91
2023-03-28T02:13:15.821Z,98380.56
2023-03-28T02:15:44.212Z,98380.63
2023-03-28T02:18:15.118Z,98383.44
2023-03-28T02:20:43.019Z,98380.03
2023-03-28T02:23:12.423Z,98371.22
2023-03-28T02:25:42.491Z,98369.94
2023-03-28T02:28:10.738Z,98371.75
2023-03-28T02:30:38.684Z,98367.56
2023-03-28T02:33:08.729Z,98361.19
2023-03-28T02:35:42.573Z,98359.91
2023-03-28T02:38:13.646Z,98369.72
2023-03-28T02:40:48.307Z,98363.56
2023-03-28T02:43:28.806Z,98358.38
2023-03-28T02:46:10.345Z,98359.06
2023-03-28T02:48:56.474Z,98360.78
2023-03-28T02:51:30.468Z,98365.66
2023-03-28T02:54:01.797Z,98358.63
2023-03-28T02:56:37.185Z,98361.47
2023-03-28T02:59:07.253Z,98357.06
2023-03-28T03:01:36.895Z,98360.19
2023-03-28T03:04:05.517Z,98366.19
2023-03-28T03:06:35.237Z,98365.13
2023-03-28T03:09:04.771Z,98370.28
2023-03-28T03:11:34.078Z,98363.78
2023-03-28T03:14:03.351Z,98369.78
2023-03-28T03:16:31.326Z,98367.88
2023-03-28T03:19:00.264Z,98378.50
2023-03-28T03:21:28.252Z,98374.47
2023-03-28T03:23:56.162Z,98383.16
2023-03-28T03:26:24.100Z,98383.28
2023-03-28T03:28:53.371Z,98382.66
2023-03-28T03:31:21.595Z,98378.25
2023-03-28T03:33:49.816Z,98387.91
2023-03-28T03:36:18.915Z,98389.75
2023-03-28T03:38:47.613Z,98384.47
2023-03-28T03:41:15.608Z,98385.06
2023-03-28T03:43:44.716Z,98383.44
2023-03-28T03:46:15.549Z,98379.13
2023-03-28T03:48:49.150Z,98383.19
2023-03-28T03:51:18.252Z,98382.16
2023-03-28T03:53:46.722Z,98391.19
2023-03-28T03:56:15.055Z,98392.34
2023-03-28T03:58:43.104Z,98390.78
2023-03-28T04:01:14.049Z,98394.50
2023-03-28T04:03:43.809Z,98398.00
2023-03-28T04:06:15.308Z,98397.94
2023-03-28T04:08:43.284Z,98402.69
2023-03-28T04:11:11.560Z,98410.41
2023-03-28T04:13:39.510Z,98414.63
2023-03-28T04:16:08.423Z,98420.56
2023-03-28T04:18:36.901Z,98419.53
2023-03-28T04:21:09.741Z,98426.56
2023-03-28T04:23:38.744Z,98426.81
2023-03-28T04:26:08.788Z,98429.38
2023-03-28T04:28:36.763Z,98421.53
2023-03-28T04:31:04.792Z,98424.91
2023-03-28T04:33:33.854Z,98422.53
2023-03-28T04:36:02.425Z,98422.41
2023-03-28T04:38:36.470Z,98424.16
2023-03-28T04:41:05.349Z,98426.06
2023-03-28T04:43:33.489Z,98432.28
2023-03-28T04:46:01.882Z,98436.56
2023-03-28T04:48:30.045Z,98432.25
2023-03-28T04:50:58.084Z,98428.13
2023-03-28T04:53:26.296Z,98437.03
2023-03-28T04:55:55.609Z,98442.75
2023-03-28T04:58:24.169Z,98437.75
2023-03-28T05:00:52.442Z,98443.06
2023-03-28T05:03:21.495Z,98453.47
2023-03-28T05:05:50.051Z,98451.75
2023-03-28T05:08:18.749Z,98451.94
2023-03-28T05:10:46.789Z,98451.13
2023-03-28T05:13:16.242Z,98459.25
2023-03-28T05:15:44.522Z,98454.63
2023-03-28T05:18:12.501Z,98452.06
2023-03-28T05:20:40.859Z,98450.34
2023-03-28T05:23:12.098Z,98459.78
2023-03-28T05:25:39.984Z,98456.19
2023-03-28T05:28:08.072Z,98451.06
2023-03-28T05:30:37.726Z,98459.94
2023-03-28T05:33:05.641Z,98456.66
2023-03-28T05:35:33.650Z,98455.72
2023-03-28T05:38:02.556Z,98463.53
2023-03-28T05:40:30.584Z,98464.88
2023-03-28T05:43:07.329Z,98468.47
2023-03-28T05:45:41.879Z,98462.56
2023-03-28T05:48:09.817Z,98467.03
2023-03-28T05:50:38.081Z,98473.94
2023-03-28T05:53:06.732Z,98471.72
2023-03-28T05:55:35.902Z,98476.25
2023-03-28T05:58:04.209Z,98475.38
2023-03-28T06:00:33.011Z,98464.66
2023-03-28T06:03:02.806Z,98464.44
2023-03-28T06:05:31.235Z,98457.38
2023-03-28T06:07:59.291Z,98467.91
2023-03-28T06:10:27.239Z,98472.22
2023-03-28T06:12:55.393Z,98479.00
2023-03-28T06:15:23.511Z,98481.34
2023-03-28T06:17:51.494Z,98480.28
2023-03-28T06:20:20.957Z,98478.50
2023-03-28T06:22:49.765Z,98479.31
2023-03-28T06:25:17.792Z,98487.94
2023-03-28T06:27:45.809Z,98483.44
2023-03-28T06:30:15.043Z,98483.09
2023-03-28T06:32:43.372Z,98485.44
2023-03-28T06:35:11.819Z,98484.66
2023-03-28T06:37:41.319Z,98483.22
2023-03-28T06:40:10.136Z,98473.50
2023-03-28T06:42:38.098Z,98474.38
2023-03-28T06:45:06.590Z,98490.50
2023-03-28T06:47:34.519Z,98483.34
2023-03-28T06:50:02.572Z,98486.59
2023-03-28T06:52:30.748Z,98486.41
2023-03-28T06:55:00.449Z,98485.78
2023-03-28T06:57:29.184Z,98488.06
2023-03-28T06:59:57.176Z,98493.66
2023-03-28T07:02:25.195Z,98492.06
2023-03-28T07:04:53.429Z,98498.06
2023-03-28T07:07:22.290Z,98494.09
2023-03-28T07:09:51.947Z,98497.38
2023-03-28T07:12:21.232Z,98493.97
2023-03-28T07:14:49.376Z,98488.81
2023-03-28T07:17:17.284Z,98496.09
2023-03-28T07:19:46.126Z,98495.97
2023-03-28T07:22:14.055Z,98492.59
2023-03-28T07:24:42.181Z,98491.69
2023-03-28T07:27:16.622Z,98494.38
2023-03-28T07:29:48.342Z,98498.66
2023-03-28T07:32:16.817Z,98499.25
2023-03-28T07:34:49.512Z,98501.56
2023-03-28T07:37:17.905Z,98499.56
2023-03-28T07:39:45.877Z,98505.41
2023-03-28T07:42:16.801Z,98499.81
2023-03-28T07:44:48.609Z,98504.53
2023-03-28T07:47:18.793Z,98503.50
2023-03-28T07:49:47.325Z,98500.47
2023-03-28T07:52:15.257Z,98503.97
2023-03-28T07:54:43.776Z,98508.94
2023-03-28T07:57:12.066Z,98504.13
2023-03-28T07:59:40.260Z,98511.72
2023-03-28T08:02:24.692Z,98506.09
2023-03-28T08:05:11.645Z,98504.59
2023-03-28T08:07:42.149Z,98508.69
2023-03-28T08:10:10.626Z,98504.91
2023-03-28T08:12:42.176Z,98504.69
2023-03-28T08:15:11.409Z,98504.44
2023-03-28T08:17:40.809Z,98498.94
2023-03-28T08:20:11.875Z,98493.59
2023-03-28T08:22:39.788Z,98499.00
2023-03-28T08:25:09.365Z,98492.28
2023-03-28T08:28:22.410Z,98484.31
2023-03-28T08:30:52.095Z,98489.69
2023-03-28T08:33:21.547Z,98487.41
2023-03-28T08:35:51.017Z,98488.56
2023-03-28T08:38:19.639Z,98476.38
2023-03-28T08:40:51.099Z,98485.56
2023-03-28T08:43:40.262Z,98487.28
2023-03-28T08:46:09.821Z,98488.44
2023-03-28T08:48:41.329Z,98485.84
2023-03-28T08:51:14.589Z,98487.63
2023-03-28T08:53:43.942Z,98485.81
2023-03-28T08:56:14.653Z,98484.06
2023-03-28T08:58:48.096Z,98483.63
2023-03-28T09:01:16.537Z,98476.34
2023-03-28T09:03:46.081Z,98484.66
2023-03-28T09:06:20.989Z,98478.88
2023-03-28T09:09:06.171Z,98478.03
2023-03-28T09:11:43.908Z,98472.81
2023-03-28T09:14:32.494Z,98474.59
2023-03-28T09:17:04.641Z,98476.16
2023-03-28T09:19:48.499Z,98476.00
2023-03-28T09:22:23.424Z,98464.97
2023-03-28T09:25:18.777Z,98467.50
2023-03-28T09:27:51.857Z,98462.06
2023-03-28T09:30:20.787Z,98459.50
2023-03-28T09:32:49.601Z,98456.22
2023-03-28T09:35:20.360Z,98455.59
2023-03-28T09:37:49.794Z,98462.22
2023-03-28T09:40:20.882Z,98454.00
2023-03-28T09:42:53.332Z,98464.69
2023-03-28T09:45:30.708Z,98463.50
2023-03-28T09:47:58.759Z,98449.84
2023-03-28T09:50:28.521Z,98451.34
2023-03-28T09:52:57.653Z,98440.34
2023-03-28T09:55:27.618Z,98438.97
2023-03-28T09:58:07.487Z,98435.97
2023-03-28T10:00:36.688Z,98438.38
2023-03-28T10:03:05.081Z,98437.72
2023-03-28T10:05:36.830Z,98432.56
2023-03-28T10:08:05.822Z,98423.53
2023-03-28T10:10:35.195Z,98427.13
2023-03-28T10:13:04.377Z,98425.03
2023-03-28T10:15:34.463Z,98424.81
2023-03-28T10:18:03.112Z,98421.47
2023-03-28T10:20:32.169Z,98431.84
2023-03-28T10:23:03.327Z,98426.44
2023-03-28T10:25:37.646Z,98412.34
2023-03-28T10:28:06.347Z,98420.59
2023-03-28T10:30:34.715Z,98416.44
2023-03-28T10:33:11.364Z,98410.56
2023-03-28T10:35:41.665Z,98404.00
2023-03-28T10:38:15.664Z,98397.59
2023-03-28T10:40:44.135Z,98402.22
2023-03-28T10:43:13.506Z,98404.09
2023-03-28T10:45:42.800Z,98405.28
2023-03-28T10:48:12.886Z,98409.16
2023-03-28T10:50:43.236Z,98405.66
2023-03-28T10:53:24.926Z,98402.56
2023-03-28T10:56:01.521Z,98410.28
2023-03-28T10:58:31.982Z,98402.59
2023-03-28T11:01:02.815Z,98393.03
2023-03-28T11:03:37.609Z,98383.91
2023-03-28T11:06:10.166Z,98377.84
2023-03-28T11:08:46.177Z,98374.69
2023-03-28T11:11:22.494Z,98374.94
2023-03-28T11:13:53.569Z,98359.50
2023-03-28T11:16:25.339Z,98362.06
2023-03-28T11:19:02.803Z,98366.00
2023-03-28T11:21:33.047Z,98361.50
2023-03-28T11:24:10.781Z,98358.19
2023-03-28T11:26:42.165Z,98361.34
2023-03-28T11:29:17.035Z,98348.00
2023-03-28T11:31:47.110Z,98348.00
2023-03-28T11:34:16.014Z,98338.97
2023-03-28T11:36:47.730Z,98333.31
2023-03-28T11:39:20.655Z,98327.81
2023-03-28T11:41:48.930Z,98326.47
2023-03-28T11:44:18.727Z,98325.53
2023-03-28T11:46:48.425Z,98317.16
2023-03-28T11:49:19.542Z,98313.13
2023-03-28T11:51:51.766Z,98314.84
2023-03-28T11:54:22.322Z,98297.88
2023-03-28T11:56:54.436Z,98296.16
2023-03-28T11:59:27.201Z,98289.59
2023-03-28T12:02:02.613Z,98286.00
2023-03-28T12:04:32.783Z,98278.16
2023-03-28T12:07:08.118Z,98274.63
2023-03-28T12:09:39.007Z,98273.88
2023-03-28T12:12:09.926Z,98264.53
2023-03-28T12:14:42.829Z,98255.84
2023-03-28T12:17:17.191Z,98264.06
2023-03-28T12:19:48.492Z,98267.06
2023-03-28T12:22:21.398Z,98257.84
2023-03-28T12:24:56.844Z,98261.09
2023-03-28T12:27:33.739Z,98259.34
2023-03-28T12:30:06.006Z,98241.91
2023-03-28T12:32:41.642Z,98247.06
2023-03-28T12:35:16.304Z,98258.63
2023-03-28T12:37:48.546Z,98236.38
2023-03-28T12:40:23.691Z,98251.72
2023-03-28T12:42:52.100Z,98236.06
2023-03-28T12:45:21.131Z,98244.50
2023-03-28T12:47:50.879Z,98239.06
2023-03-28T12:50:20.141Z,98231.91
2023-03-28T12:52:48.036Z,98229.22
2023-03-28T12:55:44.593Z,98225.47
2023-03-28T12:58:14.120Z,98220.06
2023-03-28T13:00:49.004Z,98212.66
2023-03-28T13:03:22.523Z,98206.66
2023-03-28T13:05:59.942Z,98211.56
2023-03-28T13:08:39.295Z,98212.84
2023-03-28T13:11:10.225Z,98204.63
2023-03-28T13:13:43.723Z,98202.81
2023-03-28T13:16:15.249Z,98205.16
2023-03-28T13:18:47.704Z,98198.09
2023-03-28T13:21:38.362Z,98184.09
2023-03-28T13:24:08.256Z,98185.91
2023-03-28T13:27:01.115Z,98185.69
2023-03-28T13:29:48.096Z,98175.63
2023-03-28T13:32:16.972Z,98165.69
2023-03-28T13:34:55.034Z,98171.59
2023-03-28T13:37:24.112Z,98156.41
2023-03-28T13:39:58.355Z,98152.66
2023-03-28T13:42:29.472Z,98150.72
2023-03-28T13:44:58.504Z,98153.63
2023-03-28T13:47:30.676Z,98153.22
2023-03-28T13:50:02.393Z,98139.31
2023-03-28T13:52:30.930Z,98140.28
2023-03-28T13:55:05.056Z,98135.22
2023-03-28T13:57:40.882Z,98125.44
2023-03-28T14:00:13.410Z,98128.16
2023-03-28T14:02:44.634Z,98129.50
2023-03-28T14:05:15.487Z,98124.19
2023-03-28T14:07:43.510Z,98115.13
2023-03-28T14:10:22.257Z,98104.56
2023-03-28T14:12:53.204Z,98102.03
2023-03-28T14:15:23.480Z,98104.75
2023-03-28T14:17:51.467Z,98102.97
2023-03-28T14:20:19.547Z,98091.44
2023-03-28T14:22:59.848Z,98081.31
2023-03-28T14:25:29.578Z,98090.44
2023-03-28T14:28:09.703Z,98091.81
2023-03-28T14:30:45.101Z,98096.66
2023-03-28T14:33:36.272Z,98085.78
2023-03-28T14:36:08.881Z,98091.69
2023-03-28T14:38:38.499Z,98082.91
2023-03-28T14:41:13.755Z,98073.09
2023-03-28T14:43:43.108Z,98066.78
2023-03-28T14:46:12.309Z,98061.41
2023-03-28T14:48:40.722Z,98054.03
2023-03-28T14:51:09.587Z,98044.66
2023-03-28T14:53:39.269Z,98048.53
2023-03-28T14:56:10.520Z,98051.03
2023-03-28T14:58:45.166Z,98042.09
2023-03-28T15:01:24.153Z,98024.28
2023-03-28T15:03:57.656Z,98035.25
2023-03-28T15:06:30.612Z,98029.44
2023-03-28T15:09:00.552Z,98031.56
2023-03-28T15:12:03.193Z,98028.66
2023-03-28T15:14:45.132Z,98013.28
2023-03-28T15:17:17.222Z,98002.50
2023-03-28T15:19:48.575Z,97997.53
2023-03-28T15:22:24.262Z,98003.34
2023-03-28T15:24:54.280Z,98004.34
2023-03-28T15:27:24.768Z,97995.63
2023-03-28T15:29:53.072Z,97995.41
2023-03-28T15:32:22.766Z,97986.59
2023-03-28T15:34:56.639Z,97970.59
2023-03-28T15:37:25.831Z,97968.38
2023-03-28T15:39:53.727Z,97963.72
2023-03-28T15:42:35.452Z,97955.16
2023-03-28T15:45:40.908Z,97942.97
2023-03-28T15:48:16.197Z,97945.06
2023-03-28T15:50:46.788Z,97945.66
2023-03-28T15:53:17.844Z,97936.78
2023-03-28T15:55:45.923Z,97945.31
2023-03-28T15:58:14.416Z,97950.72
2023-03-28T16:00:50.638Z,97942.19
2023-03-28T16:03:34.467Z,97935.91
2023-03-28T16:06:26.731Z,97925.06
2023-03-28T16:09:13.203Z,97929.16
2023-03-28T16:11:41.739Z,97921.41
2023-03-28T16:14:13.868Z,97917.00
2023-03-28T16:16:45.696Z,97914.75
2023-03-28T16:19:22.312Z,97913.22
2023-03-28T16:21:50.526Z,97914.06
2023-03-28T16:24:19.741Z,97916.34
2023-03-28T16:26:47.846Z,97914.94
2023-03-28T16:29:16.093Z,97901.38
2023-03-28T16:31:45.017Z,97906.09
2023-03-28T16:34:16.727Z,97909.19
2023-03-28T16:36:46.940Z,97893.84
2023-03-28T16:39:21.757Z,97900.78
2023-03-28T16:41:50.146Z,97889.28
2023-03-28T16:44:20.938Z,97897.38
2023-03-28T16:46:50.914Z,97885.75
2023-03-28T16:49:18.810Z,97893.28
2023-03-28T16:51:48.229Z,97897.75
2023-03-28T16:54:17.939Z,97892.25
2023-03-28T16:56:45.875Z,97887.56
2023-03-28T16:59:13.819Z,97886.50
2023-03-28T17:01:47.158Z,97892.69
2023-03-28T17:04:18.861Z,97894.22
2023-03-28T17:06:48.881Z,97893.06
2023-03-28T17:09:16.809Z,97894.31
2023-03-28T17:11:44.979Z,97889.50
2023-03-28T17:14:13.104Z,97889.41
2023-03-28T17:16:41.358Z,97886.84
2023-03-28T17:19:09.317Z,97886.66
2023-03-28T17:21:39.355Z,97885.97
2023-03-28T17:24:11.508Z,97885.34
2023-03-28T17:26:41.989Z,97877.03
2023-03-28T17:29:11.954Z,97876.81
2023-03-28T17:31:40.268Z,97868.50
2023-03-28T17:34:08.490Z,97869.88
2023-03-28T17:36:36.569Z,97873.84
2023-03-28T17:39:04.662Z,97876.16
2023-03-28T17:41:38.371Z,97874.81
2023-03-28T17:44:10.540Z,97874.69
2023-03-28T17:46:39.312Z,97868.72
2023-03-28T17:49:08.565Z,97864.22
2023-03-28T17:51:38.221Z,97870.84
2023-03-28T17:54:08.330Z,97868.50
2023-03-28T17:56:40.896Z,97857.31
2023-03-28T17:59:10.795Z,97864.31
2023-03-28T18:01:38.749Z,97873.28
2023-03-28T18:04:07.026Z,97861.25
2023-03-28T18:06:40.049Z,97864.97
2023-03-28T18:09:08.263Z,97853.44
2023-03-28T18:11:39.278Z,97855.78
2023-03-28T18:14:09.210Z,97856.13
2023-03-28T18:16:38.782Z,97853.22
2023-03-28T18:19:06.925Z,97855.22
2023-03-28T18:21:34.832Z,97849.19
2023-03-28T18:24:03.032Z,97851.53
2023-03-28T18:26:31.657Z,97849.19
2023-03-28T18:29:00.901Z,97848.09
2023-03-28T18:31:28.955Z,97841.16
2023-03-28T18:33:57.787Z,97842.44
2023-03-28T18:36:25.846Z,97845.38
2023-03-28T18:38:55.995Z,97844.22
2023-03-28T18:41:24.119Z,97842.19
2023-03-28T18:43:52.446Z,97848.81
2023-03-28T18:46:21.781Z,97849.19
2023-03-28T18:48:50.480Z,97853.72
2023-03-28T18:51:18.489Z,97841.34
2023-03-28T18:53:48.999Z,97847.94
2023-03-28T18:56:17.080Z,97840.63
2023-03-28T18:58:50.181Z,97846.53
2023-03-28T19:01:18.521Z,97844.22
2023-03-28T19:03:47.965Z,97845.09
2023-03-28T19:06:16.298Z,97837.06
2023-03-28T19:08:44.959Z,97851.47
2023-03-28T19:11:14.121Z,97846.47
2023-03-28T19:13:42.523Z,97846.53
2023-03-28T19:16:11.582Z,97843.34
2023-03-28T19:18:40.192Z,97851.41
2023-03-28T19:21:09.786Z,97861.69
2023-03-28T19:23:37.980Z,97845.56
2023-03-28T19:26:06.936Z,97857.09
2023-03-28T19:28:35.194Z,97861.88
2023-03-28T19:31:03.882Z,97859.25
2023-03-28T19:33:31.856Z,97870.28
2023-03-28T19:36:00.657Z,97861.56
2023-03-28T19:38:30.877Z,97871.31
2023-03-28T19:40:59.090Z,97864.03
2023-03-28T19:43:27.116Z,97868.06
2023-03-28T19:45:55.187Z,97865.66
2023-03-28T19:48:23.071Z,97853.13
2023-03-28T19:50:51.210Z,97848.16
2023-03-28T19:53:19.561Z,97857.75
2023-03-28T19:55:54.897Z,97853.28
2023-03-28T19:58:23.404Z,97859.66
2023-03-28T20:00:51.331Z,97841.72
2023-03-28T20:03:19.340Z,97848.66
2023-03-28T20:05:49.158Z,97844.41
2023-03-28T20:08:18.374Z,97844.22
2023-03-28T20:10:47.431Z,97852.69
2023-03-28T20:13:17.016Z,97856.50
2023-03-28T20:15:45.712Z,97858.22
2023-03-28T20:18:15.728Z,97865.00
2023-03-28T20:20:43.810Z,97867.66
2023-03-28T20:23:12.730Z,97866.91
2023-03-28T20:25:40.715Z,97861.00
2023-03-28T20:28:10.684Z,97857.97
2023-03-28T20:30:40.357Z,97863.13
2023-03-28T20:33:08.328Z,97869.94
2023-03-28T20:35:36.529Z,97867.91
2023-03-28T20:38:04.558Z,97853.84
2023-03-28T20:40:32.495Z,97863.59
2023-03-28T20:43:01.875Z,97872.50
2023-03-28T20:45:30.081Z,97868.44
2023-03-28T20:48:06.274Z,97872.91
2023-03-28T20:50:35.514Z,97869.03
2023-03-28T20:53:05.995Z,97869.38
2023-03-28T20:55:34.857Z,97867.81
2023-03-28T20:58:03.068Z,97864.00
2023-03-28T21:00:32.217Z,97868.31
2023-03-28T21:03:03.477Z,97863.69
2023-03-28T21:05:33.903Z,97860.16
2023-03-28T21:08:09.594Z,97869.38
2023-03-28T21:10:40.589Z,97866.94
2023-03-28T21:13:16.450Z,97870.25
2023-03-28T21:15:44.628Z,97870.72
2023-03-28T21:18:14.202Z,97869.00
2023-03-28T21:20:42.392Z,97865.06
2023-03-28T21:23:10.446Z,97855.72
2023-03-28T21:25:38.873Z,97849.50
2023-03-28T21:28:07.148Z,97852.06
2023-03-28T21:30:35.381Z,97846.41
2023-03-28T21:33:04.002Z,97845.25
2023-03-28T21:35:34.065Z,97843.00
2023-03-28T21:38:02.573Z,97826.56
2023-03-28T21:40:31.139Z,97824.53
2023-03-28T21:42:59.400Z,97831.22
2023-03-28T21:45:36.906Z,97822.38
2023-03-28T21:48:06.294Z,97815.44
2023-03-28T21:50:38.892Z,97814.94
2023-03-28T21:53:07.191Z,97812.47
2023-03-28T21:55:36.501Z,97815.09
2023-03-28T21:58:04.799Z,97819.56
2023-03-28T22:00:32.937Z,97810.75
2023-03-28T22:03:00.978Z,97807.28
2023-03-28T22:05:30.079Z,97804.75
2023-03-28T22:07:59.731Z,97805.78
2023-03-28T22:10:29.930Z,97787.56
2023-03-28T22:12:59.504Z,97799.41
2023-03-28T22:15:27.905Z,97803.91
2023-03-28T22:17:58.228Z,97801.78
2023-03-28T22:20:26.522Z,97802.00
2023-03-28T22:22:54.604Z,97801.81
2023-03-28T22:25:24.336Z,97807.66
2023-03-28T22:27:52.904Z,97803.38
2023-03-28T22:30:21.264Z,97807.13
2023-03-28T22:32:49.370Z,97803.03
2023-03-28T22:35:17.967Z,97791.06
2023-03-28T22:37:46.294Z,97790.72
2023-03-28T22:40:15.021Z,97797.66
2023-03-28T22:42:45.271Z,97785.59
2023-03-28T22:45:13.556Z,97777.72
2023-03-28T22:47:42.217Z,97771.53
2023-03-28T22:50:14.640Z,97763.69
2023-03-28T22:52:42.971Z,97760.84
2023-03-28T22:55:13.519Z,97764.03
2023-03-28T22:57:42.116Z,97767.28
2023-03-28T23:00:13.368Z,97769.19
2023-03-28T23:02:41.943Z,97757.44
2023-03-28T23:05:12.754Z,97758.81
2023-03-28T23:07:41.724Z,97758.06
2023-03-28T23:10:12.538Z,97755.63
2023-03-28T23:12:40.415Z,97762.31
2023-03-28T23:15:09.457Z,97761.78
2023-03-28T23:17:38.893Z,97756.84
2023-03-28T23:20:12.217Z,97749.31
2023-03-28T23:22:40.304Z,97745.47
2023-03-28T23:25:10.116Z,97738.84
2023-03-28T23:27:38.030Z,97738.97
2023-03-28T23:30:06.876Z,97720.66
2023-03-28T23:32:34.864Z,97725.09
2023-03-28T23:35:04.875Z,97719.81
2023-03-28T23:37:34.505Z,97727.53
2023-03-28T23:40:02.738Z,97713.25
2023-03-28T23:42:31.000Z,97716.66
2023-03-28T23:44:58.917Z,97713.72
2023-03-28T23:47:27.111Z,97710.59
2023-03-28T23:49:55.105Z,97699.28
2023-03-28T23:52:24.503Z,97698.34
2023-03-28T23:54:52.509Z,97689.69
2023-03-28T23:57:20.591Z,97685.69
2023-03-28T23:59:48.645Z,97681.50
